Flight Track Log - Related Links

Times and Time Zones

All times are in EST time to prevent confusion due to time zone crossing. See the ASQ5433 flight status page for this flight to view local times or setup timezone preferences in your user account.

Time Position Orientation Groundspeed Altitude Reporting Facility
EST Latitude Longitude Course Direction KTS MPH feet Rate Location/Type
Sun 03:44:07 PM 40.6725 -75.4089 355° North 157 181 1,700  Level New York Center
Sun 03:45:07 PM 40.7222 -75.4150 355° North 181 208 3,000 800 Climbing New York Center
Sun 03:46:07 PM 40.7442 -75.4958 290° West 184 212 3,300 1,600 Climbing New York Center
Sun 03:47:07 PM 40.6983 -75.5503 222° Southwest 153 176 6,200 2,500 Climbing New York Center
Sun 03:48:07 PM 40.6522 -75.6044 222° Southwest 206 237 8,300 2,100 Climbing New York Center
Sun 03:49:07 PM 40.6019 -75.6611 221° Southwest 234 269 10,400 1,800 Climbing New York Center
Sun 03:50:07 PM 40.5447 -75.7333 224° Southwest 256 295 11,900 1,650 Climbing New York Center
Sun 03:51:07 PM 40.4919 -75.8033 225° Southwest 269 310 13,700 1,850 Climbing New York Center
Sun 03:52:07 PM 40.4411 -75.8706 225° Southwest 275 316 15,600 1,800 Climbing New York Center
Sun 03:53:07 PM 40.3856 -75.9456 226° Southwest 280 322 17,300 1,700 Climbing New York Center
Sun 03:54:07 PM 40.3236 -76.0281 225° Southwest 290 334 19,000 1,650 Climbing New York Center
Sun 03:55:07 PM 40.2686 -76.0944 223° Southwest 290 334 20,600 1,400 Climbing New York Center
Sun 03:56:07 PM 40.2128 -76.1717 227° Southwest 295 339 21,800 1,150 Climbing New York Center
Sun 03:57:07 PM 40.1531 -76.2514 226° Southwest 295 339 22,900 1,000 Climbing New York Center
Sun 03:58:07 PM 40.0989 -76.3367 230° Southwest 305 351 23,800 1,000 Climbing New York Center
Sun 03:59:07 PM 40.0547 -76.4336 239° Southwest 311 358 24,900 950 Climbing New York Center
Sun 04:00:07 PM 40.0103 -76.5331 240° Southwest 316 364 25,700 800 Climbing New York Center
Sun 04:01:07 PM 39.9636 -76.6319 238° Southwest 326 375 26,500 750 Climbing New York Center
Sun 04:02:07 PM 39.9147 -76.7336 238° Southwest 326 375 27,200 700 Climbing New York Center
Sun 04:03:07 PM 39.8681 -76.8322 238° Southwest 326 375 27,900 629 Climbing New York Center
Sun 04:03:52 PM 39.8314 -76.9072 238° Southwest 329 379 28,300 509 Climbing Washington Center
Sun 04:04:53 PM 39.7844 -77.0092 239° Southwest 318 366 28,800 500 Climbing Washington Center
Sun 04:05:52 PM 39.7375 -77.1133 240° Southwest 318 366 29,300 555 Climbing Washington Center
Sun 04:06:52 PM 39.6881 -77.2147 238° Southwest 323 372 29,900 545 Climbing Washington Center
Sun 04:07:53 PM 39.6389 -77.3161 238° Southwest 329 379 30,400 496 Climbing Washington Center
Sun 04:08:53 PM 39.5914 -77.4172 239° Southwest 329 379 30,900 550 Climbing Washington Center
Sun 04:09:53 PM 39.5442 -77.5183 239° Southwest 335 386 31,500 550 Climbing Washington Center
Sun 04:10:53 PM 39.4967 -77.6167 238° Southwest 335 386 32,000 254 Climbing Washington Center
Sun 04:11:51 PM 39.4492 -77.7175 239° Southwest 335 386 32,000  Level Washington Center
Sun 04:12:52 PM 39.3992 -77.8208 238° Southwest 340 391 32,000  Level Washington Center
Sun 04:13:53 PM 39.3533 -77.9319 242° Southwest 340 391 32,000  Level Washington Center
Sun 04:14:51 PM 39.3075 -78.0433 242° Southwest 345 397 32,000  Level Washington Center
Sun 04:15:52 PM 39.2614 -78.1569 242° Southwest 350 403 32,000  Level Washington Center
Sun 04:16:51 PM 39.2150 -78.2733 243° Southwest 356 410 32,000  Level Washington Center
Sun 04:17:52 PM 39.1706 -78.3919 244° Southwest 361 415 32,000  Level Washington Center
Sun 04:18:52 PM 39.1242 -78.5081 243° Southwest 361 415 32,000  Level Washington Center
Sun 04:19:51 PM 39.0753 -78.6236 241° Southwest 361 415 32,000  Level Washington Center
Sun 04:20:51 PM 39.0286 -78.7419 243° Southwest 361 415 32,000  Level Washington Center
Sun 04:21:52 PM 38.9817 -78.8575 242° Southwest 361 415 32,000  Level Washington Center
Sun 04:22:53 PM 38.9325 -78.9728 241° Southwest 361 415 32,000  Level Washington Center
Sun 04:23:53 PM 38.8856 -79.0906 243° Southwest 361 415 32,000  Level Washington Center
Sun 04:24:52 PM 38.8383 -79.2056 242° Southwest 366 421 32,000  Level Washington Center
Sun 04:25:52 PM 38.8150 -79.3536 259° West 374 430 32,000  Level Washington Center
Sun 04:26:53 PM 38.7928 -79.4644 256° West 374 430 32,000  Level Washington Center
Sun 04:27:51 PM 38.7736 -79.5992 260° West 374 430 32,000  Level Washington Center
Sun 04:28:53 PM 38.7486 -79.7256 256° West 374 430 32,000  Level Washington Center
Sun 04:30:07 PM 38.7133 -79.8942 255° West 369 425 32,000  Level Indianapolis Center
Sun 04:31:08 PM 38.6906 -80.0217 257° West 368 423 32,000  Level Indianapolis Center
Sun 04:32:09 PM 38.6664 -80.1494 256° West 369 425 32,000  Level Indianapolis Center
Sun 04:33:10 PM 38.6431 -80.2761 257° West 367 422 32,000  Level Indianapolis Center
Sun 04:34:12 PM 38.6189 -80.4033 256° West 368 423 32,000  Level Indianapolis Center
Sun 04:35:13 PM 38.5950 -80.5303 256° West 368 423 32,000  Level Indianapolis Center
Sun 04:36:14 PM 38.5700 -80.6567 256° West 365 420 32,000  Level Indianapolis Center
Sun 04:37:16 PM 38.5464 -80.7825 257° West 365 420 32,000  Level Indianapolis Center
Sun 04:38:17 PM 38.5217 -80.9075 256° West 362 417 32,000  Level Indianapolis Center
Sun 04:39:18 PM 38.4747 -81.0219 242° Southwest 366 421 32,000  Level Indianapolis Center
Sun 04:40:20 PM 38.3889 -81.0908 212° Southwest 364 419 32,000  Level Indianapolis Center
Sun 04:41:21 PM 38.2964 -81.1492 206° Southwest 367 422 32,000  Level Indianapolis Center
Sun 04:42:22 PM 38.2047 -81.2078 207° Southwest 367 422 32,000  Level Indianapolis Center
Sun 04:43:24 PM 38.0933 -81.2772 206° Southwest 368 423 32,000  Level Indianapolis Center
Sun 04:44:25 PM 38.0000 -81.3356 206° Southwest 371 427 32,000  Level Indianapolis Center
Sun 04:45:26 PM 37.9058 -81.3928 206° Southwest 373 429 32,000  Level Indianapolis Center
Sun 04:46:27 PM 37.8083 -81.4533 206° Southwest 374 430 32,000  Level Indianapolis Center
Sun 04:47:29 PM 37.7128 -81.5142 207° Southwest 370 426 32,000  Level Indianapolis Center
Sun 04:48:30 PM 37.6175 -81.5714 205° Southwest 375 432 32,000  Level Indianapolis Center
Sun 04:49:31 PM 37.5231 -81.6275 205° Southwest 374 430 32,000  Level Indianapolis Center
Sun 04:50:32 PM 37.4297 -81.6858 206° Southwest 374 430 32,000  Level Indianapolis Center
Sun 04:51:34 PM 37.3364 -81.7422 206° Southwest 372 428 32,000  Level Indianapolis Center
Sun 04:52:35 PM 37.2431 -81.8003 206° Southwest 371 427 32,000  Level Indianapolis Center
Sun 04:53:36 PM 37.1503 -81.8572 206° Southwest 371 427 32,000  Level Indianapolis Center
Sun 04:54:37 PM 37.0578 -81.9142 206° Southwest 369 425 32,000  Level Indianapolis Center
Sun 04:55:38 PM 36.9631 -81.9703 205° Southwest 372 428 32,000  Level Indianapolis Center
Sun 04:56:40 PM 36.8697 -82.0267 206° Southwest 371 427 32,000  Level Indianapolis Center
Sun 04:57:41 PM 36.7756 -82.0831 206° Southwest 372 428 32,000  Level Indianapolis Center
Sun 04:58:42 PM 36.6819 -82.1400 206° Southwest 372 428 32,000  Level Indianapolis Center
Sun 04:59:43 PM 36.5714 -82.2067 206° Southwest 375 432 32,000  Level Indianapolis Center
Sun 05:00:44 PM 36.4767 -82.2611 205° Southwest 374 430 32,000  Level Indianapolis Center
Sun 05:01:45 PM 36.3836 -82.3169 206° Southwest 371 427 32,000  Level Indianapolis Center
Sun 05:02:51 PM 36.2889 -82.3747 206° Southwest 379 436 32,000  Level Atlanta Center
Sun 05:03:51 PM 36.1958 -82.4308 206° Southwest 379 436 32,000  Level Atlanta Center
Sun 05:04:51 PM 36.1006 -82.4867 205° Southwest 379 436 32,000  Level Atlanta Center
Sun 05:05:51 PM 36.0053 -82.5422 205° Southwest 379 436 32,000  Level Atlanta Center
Sun 05:06:51 PM 35.9039 -82.6006 205° Southwest 379 436 32,000  Level Atlanta Center
Sun 05:07:51 PM 35.8086 -82.6561 205° Southwest 379 436 32,000  Level Atlanta Center
Sun 05:08:51 PM 35.7131 -82.7139 206° Southwest 379 436 32,000 -50 Level Atlanta Center
Sun 05:09:51 PM 35.6178 -82.7667 204° Southwest 379 436 31,900 -650 Descending Atlanta Center
Sun 05:10:51 PM 35.5225 -82.8242 206° Southwest 379 436 30,700 -1,250 Descending Atlanta Center
Sun 05:11:51 PM 35.4292 -82.8792 206° Southwest 379 436 29,400 -1,200 Descending Atlanta Center
Sun 05:12:51 PM 35.3336 -82.9442 209° Southwest 384 442 28,300 -1,200 Descending Atlanta Center
Sun 05:13:51 PM 35.2425 -83.0089 210° Southwest 379 436 27,000 -1,200 Descending Atlanta Center
Sun 05:14:51 PM 35.1511 -83.0786 212° Southwest 385 443 25,900 -1,150 Descending Atlanta Center
Sun 05:15:51 PM 35.0619 -83.1456 212° Southwest 385 443 24,700 -950 Descending Atlanta Center
Sun 05:16:51 PM 34.9644 -83.2150 210° Southwest 385 443 24,000 -350 Descending Atlanta Center
Sun 05:17:51 PM 34.8772 -83.2792 211° Southwest 390 449 24,000  Level Atlanta Center
Sun 05:18:51 PM 34.7919 -83.3408 211° Southwest 385 443 24,000  Level Atlanta Center
Sun 05:19:51 PM 34.7025 -83.4019 209° Southwest 385 443 24,000  Level Atlanta Center
Sun 05:20:51 PM 34.6111 -83.4683 211° Southwest 385 443 24,000 -200 Level Atlanta Center
Sun 05:21:51 PM 34.5175 -83.5344 210° Southwest 385 443 23,600 -1,250 Descending Atlanta Center
Sun 05:22:51 PM 34.4281 -83.6006 211° Southwest 380 437 21,500 -2,050 Descending Atlanta Center
Sun 05:23:51 PM 34.3322 -83.6664 210° Southwest 380 437 19,500 -1,950 Descending Atlanta Center
Sun 05:24:51 PM 34.2531 -83.7272 212° Southwest 361 415 17,600 -1,750 Descending Atlanta Center
Sun 05:25:51 PM 34.1822 -83.7750 209° Southwest 322 371 16,000 -1,600 Descending Atlanta Center
Sun 05:26:51 PM 34.1133 -83.8256 211° Southwest 302 348 14,400 -1,000 Descending Atlanta Center
Sun 05:27:51 PM 34.0489 -83.8858 218° Southwest 297 342 14,000 -950 Descending Atlanta Center
Sun 05:28:51 PM 33.9883 -83.9486 221° Southwest 292 336 12,500 -1,277 Descending Atlanta Center
Sun 05:29:25 PM 33.9500 -83.9833 217° Southwest 268 308 12,000 -319 Descending Atlanta TRACON
Sun 05:30:25 PM 33.9000 -84.0333 220° Southwest 277 319 12,000  Level Atlanta TRACON
Sun 05:31:20 PM 33.8500 -84.1000 228° Southwest 278 320 12,000  Level Atlanta TRACON
Sun 05:32:25 PM 33.8000 -84.1833 234° Southwest 279 321 12,000  Level Atlanta TRACON
Sun 05:33:25 PM 33.7500 -84.2500 228° Southwest 275 316 12,000 -300 Level Atlanta TRACON
Sun 05:34:25 PM 33.7333 -84.3333 256° West 269 310 11,400 -1,250 Descending Atlanta TRACON
Sun 05:35:25 PM 33.7333 -84.4167 270° West 251 289 9,500 -2,035 Descending Atlanta TRACON
Sun 05:36:20 PM 33.7333 -84.5000 270° West 243 280 7,500 -2,035 Descending Atlanta TRACON
Sun 05:37:20 PM 33.7333 -84.5833 270° West 237 273 5,600 -1,261 Descending Atlanta TRACON
Sun 05:38:19 PM 33.7333 -84.6500 270° West 224 258 5,000 -303 Descending Atlanta TRACON
Sun 05:39:19 PM 33.7333 -84.7333 270° West 229 264 5,000  Level Atlanta TRACON
Sun 05:40:19 PM 33.7333 -84.8000 270° West 216 249 5,000  Level Atlanta TRACON
Sun 05:41:25 PM 33.7333 -84.8833 270° West 221 254 5,000  Level Atlanta TRACON
Sun 05:42:20 PM 33.6833 -84.8833 180° South 229 264 5,000  Level Atlanta TRACON
Sun 05:43:26 PM 33.6500 -84.8000 116° Southeast 258 297 5,000  Level Atlanta TRACON
Sun 05:44:25 PM 33.6500 -84.7333 90° East 236 272 5,000 -151 Level Atlanta TRACON
Sun 05:45:25 PM 33.6500 -84.6500 90° East 235 270 4,700 -800 Descending Atlanta TRACON
Sun 05:46:25 PM 33.6500 -84.5833 90° East 213 245 3,400 -1,096 Descending Atlanta TRACON
Sun 05:47:20 PM 33.6500 -84.5333 90° East 168 193 2,600 -835 Descending Atlanta TRACON
Sun 05:48:20 PM 33.6500 -84.4833 90° East 145 167 1,800 -800 Descending Atlanta TRACON
Sun 05:50:00 PM 33.6367 -84.4279 103° East  Level Estimated
Sun 05:57:00 PM 33.6367 -84.4279 103° East  Level Estimated
Sun 05:58:00 PM 33.6367 -84.4279 103° East  Level Estimated

Login

Don't have an account? Register now (free) for customized features, flight alerts, and more!